createdAt,value
2018-05-15T00:00:23.167Z,3.97
2018-05-15T00:02:51.179Z,3.83
2018-05-15T00:05:19.948Z,3.60
2018-05-15T00:07:47.946Z,4.37
2018-05-15T00:10:15.939Z,3.92
2018-05-15T00:12:43.944Z,3.75
2018-05-15T00:15:12.709Z,4.35
2018-05-15T00:17:40.725Z,3.50
2018-05-15T00:20:08.726Z,3.72
2018-05-15T00:22:36.723Z,4.20
2018-05-15T00:25:05.082Z,4.55
2018-05-15T00:27:33.888Z,3.78
2018-05-15T00:30:02.708Z,3.70
2018-05-15T00:32:30.747Z,4.20
2018-05-15T00:34:58.795Z,4.10
2018-05-15T00:37:28.447Z,3.87
2018-05-15T00:39:56.479Z,3.60
2018-05-15T00:42:24.531Z,3.75
2018-05-15T00:44:52.709Z,4.10
2018-05-15T00:47:20.780Z,3.92
2018-05-15T00:49:48.800Z,3.97
2018-05-15T00:52:17.614Z,5.22
2018-05-15T00:54:45.651Z,3.83
2018-05-15T00:57:13.717Z,4.35
2018-05-15T00:59:41.771Z,5.05
2018-05-15T01:02:09.807Z,4.47
2018-05-15T01:04:37.869Z,4.30
2018-05-15T01:07:05.899Z,4.75
2018-05-15T01:09:34.740Z,3.75
2018-05-15T01:12:02.771Z,5.00
2018-05-15T01:14:30.830Z,3.80
2018-05-15T01:16:58.875Z,3.90
2018-05-15T01:19:26.919Z,4.40
2018-05-15T01:21:56.483Z,4.87
2018-05-15T01:24:24.523Z,4.10
2018-05-15T01:26:52.583Z,4.25
2018-05-15T01:29:20.635Z,4.12
2018-05-15T01:31:48.673Z,4.40
2018-05-15T01:34:16.727Z,4.10
2018-05-15T01:36:44.771Z,4.05
2018-05-15T01:39:13.600Z,4.30
2018-05-15T01:41:41.643Z,4.50
2018-05-15T01:44:09.707Z,4.65
2018-05-15T01:46:37.752Z,4.90
2018-05-15T01:49:05.788Z,4.47
2018-05-15T01:51:34.611Z,4.40
2018-05-15T01:54:03.431Z,4.45
2018-05-15T01:56:31.506Z,4.60
2018-05-15T01:58:59.571Z,4.50
2018-05-15T02:01:28.390Z,3.78
2018-05-15T02:03:56.449Z,4.40
2018-05-15T02:06:24.491Z,5.30
2018-05-15T02:08:52.567Z,4.78
2018-05-15T02:11:20.596Z,4.47
2018-05-15T02:13:48.651Z,5.35
2018-05-15T02:16:16.691Z,4.75
2018-05-15T02:18:45.503Z,4.40
2018-05-15T02:21:13.571Z,4.97
2018-05-15T02:23:42.368Z,4.60
2018-05-15T02:26:11.188Z,4.90
2018-05-15T02:28:39.221Z,4.90
2018-05-15T02:31:07.280Z,4.55
2018-05-15T02:33:35.308Z,4.62
2018-05-15T02:36:03.376Z,5.75
2018-05-15T02:38:31.435Z,4.40
2018-05-15T02:40:59.484Z,5.40
2018-05-15T02:43:27.568Z,5.30
2018-05-15T02:45:56.372Z,5.32
2018-05-15T02:48:25.191Z,5.50
2018-05-15T02:50:53.237Z,4.95
2018-05-15T02:53:21.301Z,4.85
2018-05-15T02:55:49.370Z,4.85
2018-05-15T02:58:17.393Z,5.22
2018-05-15T03:00:45.455Z,5.55
2018-05-15T03:03:13.483Z,5.43
2018-05-15T03:05:41.535Z,5.12
2018-05-15T03:08:09.575Z,4.82
2018-05-15T03:10:37.622Z,5.80
2018-05-15T03:13:06.451Z,5.20
2018-05-15T03:15:34.482Z,5.93
2018-05-15T03:18:02.546Z,4.82
2018-05-15T03:20:30.572Z,5.45
2018-05-15T03:22:59.387Z,5.15
2018-05-15T03:25:27.424Z,6.12
2018-05-15T03:27:55.479Z,6.07
2018-05-15T03:30:23.535Z,5.05
2018-05-15T03:32:51.566Z,6.65
2018-05-15T03:35:19.621Z,5.57
2018-05-15T03:37:47.647Z,6.20
2018-05-15T03:40:15.703Z,5.20
2018-05-15T03:42:43.743Z,5.30
2018-05-15T03:45:12.571Z,5.47
2018-05-15T03:47:40.630Z,5.60
2018-05-15T03:50:09.423Z,5.50
2018-05-15T03:52:38.251Z,5.15
2018-05-15T03:55:06.300Z,6.62
2018-05-15T03:57:35.148Z,6.47
2018-05-15T04:00:03.185Z,5.40
2018-05-15T04:02:43.019Z,6.47
2018-05-15T04:05:22.762Z,5.70
2018-05-15T04:08:15.655Z,6.03
2018-05-15T04:10:44.031Z,5.68
2018-05-15T04:13:12.076Z,5.57
2018-05-15T04:15:41.104Z,7.03
2018-05-15T04:18:09.151Z,5.25
2018-05-15T04:20:37.954Z,5.57
2018-05-15T04:23:06.779Z,5.25
2018-05-15T04:25:34.839Z,5.45
2018-05-15T04:28:03.702Z,4.95
2018-05-15T04:30:31.710Z,5.28
2018-05-15T04:33:01.266Z,5.40
2018-05-15T04:35:29.315Z,5.57
2018-05-15T04:37:57.365Z,5.10
2018-05-15T04:40:25.915Z,5.60
2018-05-15T04:42:54.730Z,6.05
2018-05-15T04:45:22.794Z,4.70
2018-05-15T04:47:51.613Z,5.55
2018-05-15T04:50:19.655Z,5.15
2018-05-15T04:52:47.711Z,5.40
2018-05-15T04:55:15.744Z,5.25
2018-05-15T04:57:44.563Z,4.97
2018-05-15T05:00:12.603Z,4.60
2018-05-15T05:02:40.647Z,5.03
2018-05-15T05:05:08.698Z,5.28
2018-05-15T05:07:37.501Z,4.82
2018-05-15T05:10:06.324Z,4.90
2018-05-15T05:12:34.365Z,5.43
2018-05-15T05:15:02.413Z,4.85
2018-05-15T05:17:30.442Z,5.35
2018-05-15T05:19:58.485Z,5.65
2018-05-15T05:22:26.535Z,5.28
2018-05-15T05:24:54.579Z,4.82
2018-05-15T05:27:25.151Z,4.40
2018-05-15T05:29:53.995Z,4.95
2018-05-15T05:32:22.060Z,3.83
2018-05-15T05:34:50.094Z,5.82
2018-05-15T05:37:19.310Z,4.72
2018-05-15T05:39:49.011Z,5.05
2018-05-15T05:42:17.055Z,4.72
2018-05-15T05:44:45.119Z,4.45
2018-05-15T05:47:14.056Z,4.80
2018-05-15T05:49:42.111Z,4.87
2018-05-15T05:52:10.924Z,4.68
2018-05-15T05:54:39.014Z,5.35
2018-05-15T05:57:07.050Z,4.45
2018-05-15T05:59:35.124Z,5.07
2018-05-15T06:02:03.182Z,5.47
2018-05-15T06:04:31.219Z,5.20
2018-05-15T06:07:00.052Z,4.60
2018-05-15T06:09:28.094Z,4.45
2018-05-15T06:11:56.949Z,5.45
2018-05-15T06:14:25.002Z,4.68
2018-05-15T06:16:53.831Z,3.87
2018-05-15T06:19:22.707Z,4.75
2018-05-15T06:21:51.515Z,4.72
2018-05-15T06:24:20.339Z,4.90
2018-05-15T06:26:48.373Z,4.43
2018-05-15T06:29:16.450Z,3.92
2018-05-15T06:31:44.487Z,4.82
2018-05-15T06:34:12.552Z,4.20
2018-05-15T06:36:41.502Z,4.00
2018-05-15T06:39:09.532Z,4.00
2018-05-15T06:41:37.587Z,4.03
2018-05-15T06:44:05.625Z,4.32
2018-05-15T06:46:33.699Z,4.57
2018-05-15T06:49:02.499Z,4.28
2018-05-15T06:51:31.320Z,4.28
2018-05-15T06:53:59.374Z,4.30
2018-05-15T06:56:28.179Z,4.47
2018-05-15T06:58:57.004Z,4.60
2018-05-15T07:01:25.034Z,4.47
2018-05-15T07:03:53.095Z,4.40
2018-05-15T07:06:21.126Z,3.90
2018-05-15T07:08:49.952Z,3.85
2018-05-15T07:11:18.024Z,4.53
2018-05-15T07:13:47.135Z,3.40
2018-05-15T07:16:15.955Z,3.55
2018-05-15T07:18:43.987Z,4.45
2018-05-15T07:21:12.039Z,2.92
2018-05-15T07:23:40.075Z,2.87
2018-05-15T07:26:08.875Z,3.30
2018-05-15T07:28:37.696Z,3.30
2018-05-15T07:31:05.759Z,3.50
2018-05-15T07:33:34.591Z,2.78
2018-05-15T07:36:02.631Z,2.87
2018-05-15T07:38:30.699Z,2.95
2018-05-15T07:40:58.732Z,3.58
2018-05-15T07:43:26.799Z,3.15
2018-05-15T07:45:55.600Z,3.00
2018-05-15T07:48:24.414Z,3.50
2018-05-15T07:50:52.497Z,3.15
2018-05-15T07:53:21.304Z,3.47
2018-05-15T07:55:49.367Z,3.10
2018-05-15T07:58:18.191Z,3.17
2018-05-15T08:00:46.247Z,2.80
2018-05-15T08:03:14.294Z,2.28
2018-05-15T08:05:42.347Z,3.53
2018-05-15T08:08:10.428Z,3.00
2018-05-15T08:10:39.250Z,2.72
2018-05-15T08:13:07.311Z,2.45
2018-05-15T08:15:35.348Z,2.62
2018-05-15T08:18:03.419Z,2.20
2018-05-15T08:20:31.471Z,2.10
2018-05-15T08:22:59.527Z,2.30
2018-05-15T08:25:28.354Z,2.10
2018-05-15T08:27:56.426Z,2.20
2018-05-15T08:30:25.248Z,2.10
2018-05-15T08:32:53.286Z,2.47
2018-05-15T08:35:21.348Z,2.35
2018-05-15T08:37:49.387Z,2.30
2018-05-15T08:40:17.448Z,1.80
2018-05-15T08:42:46.257Z,2.30
2018-05-15T08:45:15.145Z,2.03
2018-05-15T08:47:43.176Z,2.50
2018-05-15T08:50:11.215Z,1.80
2018-05-15T08:52:39.304Z,2.20
2018-05-15T08:55:08.139Z,2.10
2018-05-15T08:57:36.189Z,2.50
2018-05-15T09:00:05.040Z,2.10
2018-05-15T09:02:33.080Z,2.50
2018-05-15T09:05:01.912Z,2.22
2018-05-15T09:07:29.955Z,2.08
2018-05-15T09:09:58.020Z,2.12
2018-05-15T09:12:26.087Z,2.10
2018-05-15T09:14:54.132Z,2.25
2018-05-15T09:17:22.960Z,2.40
2018-05-15T09:19:50.998Z,2.53
2018-05-15T09:22:19.068Z,1.83
2018-05-15T09:24:48.617Z,2.00
2018-05-15T09:27:17.444Z,2.78
2018-05-15T09:29:45.500Z,2.40
2018-05-15T09:32:14.313Z,2.50
2018-05-15T09:34:42.727Z,2.28
2018-05-15T09:37:10.767Z,2.60
2018-05-15T09:39:39.608Z,1.87
2018-05-15T09:42:08.492Z,2.42
2018-05-15T09:44:36.567Z,2.45
2018-05-15T09:47:06.023Z,2.08
2018-05-15T09:49:34.091Z,2.45
2018-05-15T09:52:02.552Z,2.40
2018-05-15T09:54:30.599Z,2.45
2018-05-15T09:56:58.653Z,1.90
2018-05-15T09:59:28.147Z,2.12
2018-05-15T10:01:56.979Z,2.30
2018-05-15T10:04:25.025Z,2.45
2018-05-15T10:06:53.853Z,2.35
2018-05-15T10:09:21.896Z,2.10
2018-05-15T10:11:49.963Z,2.80
2018-05-15T10:14:18.101Z,3.15
2018-05-15T10:16:46.079Z,2.90
2018-05-15T10:19:14.147Z,2.95
2018-05-15T10:21:43.375Z,3.33
2018-05-15T10:24:11.449Z,2.83
2018-05-15T10:26:40.261Z,3.00
2018-05-15T10:29:09.095Z,3.03
2018-05-15T10:31:37.151Z,3.20
2018-05-15T10:34:05.216Z,2.72
2018-05-15T10:36:34.023Z,3.00
2018-05-15T10:39:02.111Z,2.85
2018-05-15T10:41:30.928Z,2.90
2018-05-15T10:43:59.018Z,2.50
2018-05-15T10:46:27.799Z,2.40
2018-05-15T10:48:56.635Z,3.15
2018-05-15T10:51:24.704Z,3.25
2018-05-15T10:53:52.754Z,2.92
2018-05-15T10:56:21.587Z,3.10
2018-05-15T10:58:49.633Z,3.10
2018-05-15T11:01:17.755Z,2.80
2018-05-15T11:03:46.651Z,3.30
2018-05-15T11:06:15.529Z,2.70
2018-05-15T11:08:43.519Z,3.00
2018-05-15T11:11:12.344Z,2.90
2018-05-15T11:13:40.389Z,2.80
2018-05-15T11:16:08.448Z,2.60
2018-05-15T11:18:43.522Z,2.60
2018-05-15T11:21:23.467Z,2.70
2018-05-15T11:24:03.243Z,2.43
2018-05-15T11:26:31.307Z,2.57
2018-05-15T11:28:59.399Z,2.53
2018-05-15T11:31:27.481Z,2.70
2018-05-15T11:33:55.545Z,2.40
2018-05-15T11:36:23.579Z,3.10
2018-05-15T11:38:51.641Z,2.87
2018-05-15T11:41:19.675Z,3.30
2018-05-15T11:43:47.747Z,3.37
2018-05-15T11:46:16.554Z,3.30
2018-05-15T11:48:45.326Z,3.20
2018-05-15T11:51:13.519Z,3.35
2018-05-15T11:53:40.787Z,2.80
2018-05-15T11:56:09.640Z,3.42
2018-05-15T11:58:37.696Z,3.70
2018-05-15T12:01:05.780Z,3.55
2018-05-15T12:03:33.821Z,3.55
2018-05-15T12:06:01.888Z,3.70
2018-05-15T12:08:29.928Z,3.72
2018-05-15T12:10:57.995Z,3.53
2018-05-15T12:13:26.843Z,3.33
2018-05-15T12:15:54.914Z,3.75
2018-05-15T12:18:22.999Z,3.40
2018-05-15T12:20:51.049Z,2.95
2018-05-15T12:23:19.099Z,4.03
2018-05-15T12:25:47.144Z,4.32
2018-05-15T12:28:15.211Z,4.45
2018-05-15T12:30:44.023Z,3.55
2018-05-15T12:33:12.079Z,3.60
2018-05-15T12:35:40.139Z,3.35
2018-05-15T12:38:08.219Z,3.25
2018-05-15T12:40:36.286Z,3.05
2018-05-15T12:43:04.613Z,3.30
2018-05-15T12:45:32.656Z,3.50
2018-05-15T12:48:00.745Z,3.53
2018-05-15T12:50:28.784Z,3.53
2018-05-15T12:52:56.847Z,2.78
2018-05-15T12:55:26.412Z,3.20
2018-05-15T12:57:54.483Z,3.58
2018-05-15T13:00:23.320Z,3.15
2018-05-15T13:02:51.383Z,3.45
2018-05-15T13:05:19.452Z,3.00
2018-05-15T13:07:47.527Z,3.83
2018-05-15T13:10:15.597Z,3.80
2018-05-15T13:12:43.641Z,3.28
2018-05-15T13:15:11.695Z,3.53
2018-05-15T13:17:39.754Z,3.47
2018-05-15T13:20:09.652Z,3.62
2018-05-15T13:22:37.732Z,3.55
2018-05-15T13:25:05.784Z,3.45
2018-05-15T13:27:33.832Z,3.75
2018-05-15T13:30:01.885Z,3.62
2018-05-15T13:32:29.972Z,3.55
2018-05-15T13:34:58.011Z,4.55
2018-05-15T13:37:26.840Z,3.92
2018-05-15T13:39:54.876Z,3.80
2018-05-15T13:42:23.736Z,3.65
2018-05-15T13:44:51.800Z,3.20
2018-05-15T13:47:19.836Z,3.08
2018-05-15T13:49:48.670Z,3.12
2018-05-15T13:52:16.749Z,3.17
2018-05-15T13:54:45.584Z,2.92
2018-05-15T13:57:13.628Z,3.10
2018-05-15T13:59:42.472Z,2.62
2018-05-15T14:02:10.526Z,2.85
2018-05-15T14:04:39.365Z,3.53
2018-05-15T14:07:07.420Z,2.53
2018-05-15T14:09:35.491Z,2.40
2018-05-15T14:12:04.323Z,2.65
2018-05-15T14:14:32.379Z,2.53
2018-05-15T14:17:01.208Z,2.85
2018-05-15T14:19:29.243Z,2.70
2018-05-15T14:21:57.307Z,2.37
2018-05-15T14:24:25.381Z,3.35
2018-05-15T14:26:53.435Z,2.42
2018-05-15T14:29:21.468Z,2.50
2018-05-15T14:31:49.539Z,2.20
2018-05-15T14:34:17.590Z,2.40
2018-05-15T14:36:45.660Z,2.58
2018-05-15T14:39:13.736Z,2.20
2018-05-15T14:41:54.508Z,2.40
2018-05-15T14:44:23.331Z,1.98
2018-05-15T14:46:51.383Z,2.10
2018-05-15T14:49:19.450Z,2.33
2018-05-15T14:51:47.968Z,2.50
2018-05-15T14:54:16.027Z,2.50
2018-05-15T14:56:44.190Z,4.53
2018-05-15T14:59:13.807Z,2.97
2018-05-15T15:01:41.875Z,3.42
2018-05-15T15:04:09.911Z,2.80
2018-05-15T15:06:39.487Z,2.30
2018-05-15T15:09:07.609Z,2.50
2018-05-15T15:11:35.674Z,2.22
2018-05-15T15:14:03.724Z,2.40
2018-05-15T15:16:32.559Z,2.72
2018-05-15T15:19:00.642Z,2.40
2018-05-15T15:21:28.975Z,2.47
2018-05-15T15:23:57.110Z,2.95
2018-05-15T15:26:25.148Z,2.53
2018-05-15T15:28:53.200Z,3.37
2018-05-15T15:31:21.252Z,2.80
2018-05-15T15:33:49.315Z,3.17
2018-05-15T15:36:18.125Z,2.70
2018-05-15T15:38:47.433Z,2.70
2018-05-15T15:41:16.248Z,3.65
2018-05-15T15:43:45.128Z,2.60
2018-05-15T15:46:13.124Z,2.75
2018-05-15T15:48:41.972Z,3.53
2018-05-15T15:51:10.042Z,2.70
2018-05-15T15:53:38.075Z,2.60
2018-05-15T15:56:06.916Z,2.87
2018-05-15T15:58:34.957Z,2.83
2018-05-15T16:01:03.784Z,2.60
2018-05-15T16:03:31.828Z,2.87
2018-05-15T16:05:59.882Z,3.10
2018-05-15T16:08:28.042Z,3.42
2018-05-15T16:10:56.103Z,3.15
2018-05-15T16:13:24.912Z,2.67
2018-05-15T16:15:53.743Z,3.08
2018-05-15T16:18:21.820Z,2.80
2018-05-15T16:20:49.849Z,3.30
2018-05-15T16:23:17.929Z,2.80
2018-05-15T16:25:45.973Z,3.30
2018-05-15T16:28:14.995Z,3.37
2018-05-15T16:30:43.038Z,3.20
2018-05-15T16:33:11.868Z,4.30
2018-05-15T16:35:39.932Z,3.42
2018-05-15T16:38:08.739Z,3.20
2018-05-15T16:40:36.971Z,3.40
2018-05-15T16:43:05.053Z,4.30
2018-05-15T16:45:33.111Z,4.43
2018-05-15T16:48:01.161Z,4.45
2018-05-15T16:50:29.979Z,4.00
2018-05-15T16:52:58.876Z,3.70
2018-05-15T16:55:27.704Z,3.45
2018-05-15T16:57:56.012Z,3.22
2018-05-15T17:00:24.071Z,3.08
2018-05-15T17:02:52.107Z,2.87
2018-05-15T17:05:20.169Z,3.05
2018-05-15T17:07:48.264Z,3.10
2018-05-15T17:10:16.288Z,2.60
2018-05-15T17:12:45.083Z,2.45
2018-05-15T17:15:13.908Z,2.87
2018-05-15T17:17:41.977Z,4.40
2018-05-15T17:20:10.775Z,2.62
2018-05-15T17:22:38.835Z,3.05
2018-05-15T17:25:06.940Z,2.65
2018-05-15T17:27:35.778Z,2.28
2018-05-15T17:30:03.816Z,3.08
2018-05-15T17:32:32.432Z,3.10
2018-05-15T17:35:01.223Z,3.50
2018-05-15T17:37:30.053Z,3.45
2018-05-15T17:39:58.099Z,3.20
2018-05-15T17:42:26.152Z,3.35
2018-05-15T17:44:54.389Z,3.30
2018-05-15T17:47:23.274Z,3.45
2018-05-15T17:49:52.103Z,3.53
2018-05-15T17:52:20.143Z,3.25
2018-05-15T17:54:49.716Z,2.90
2018-05-15T17:57:17.739Z,3.00
2018-05-15T17:59:45.888Z,3.40
2018-05-15T18:02:13.864Z,3.80
2018-05-15T18:04:41.923Z,4.15
2018-05-15T18:07:10.774Z,4.05
2018-05-15T18:09:39.546Z,4.97
2018-05-15T18:12:07.620Z,4.07
2018-05-15T18:14:36.476Z,4.22
2018-05-15T18:17:04.524Z,4.35
2018-05-15T18:19:32.559Z,4.45
2018-05-15T18:22:00.619Z,5.10
2018-05-15T18:24:28.669Z,4.82
2018-05-15T18:26:56.745Z,4.80
2018-05-15T18:29:25.542Z,4.80
2018-05-15T18:31:54.368Z,4.40
2018-05-15T18:34:22.423Z,5.45
2018-05-15T18:36:51.231Z,6.57
2018-05-15T18:39:20.048Z,4.65
2018-05-15T18:41:48.102Z,4.62
2018-05-15T18:44:16.144Z,5.12
2018-05-15T18:46:44.200Z,5.20
2018-05-15T18:49:12.260Z,5.55
2018-05-15T18:51:41.071Z,5.40
2018-05-15T18:54:09.892Z,5.20
2018-05-15T18:56:38.345Z,5.30
2018-05-15T18:59:08.419Z,5.22
2018-05-15T19:01:36.466Z,5.60
2018-05-15T19:04:04.523Z,5.57
2018-05-15T19:06:32.564Z,5.93
2018-05-15T19:09:00.709Z,5.40
2018-05-15T19:11:29.299Z,5.68
2018-05-15T19:13:58.943Z,5.70
2018-05-15T19:16:26.935Z,5.53
2018-05-15T19:18:55.754Z,5.28
2018-05-15T19:21:24.964Z,5.72
2018-05-15T19:23:53.033Z,5.82
2018-05-15T19:26:21.847Z,5.78
2018-05-15T19:28:49.933Z,6.70
2018-05-15T19:31:17.982Z,6.68
2018-05-15T19:33:52.099Z,6.07
2018-05-15T19:36:20.179Z,5.63
2018-05-15T19:38:48.467Z,5.90
2018-05-15T19:41:19.443Z,6.05
2018-05-15T19:43:47.497Z,5.50
2018-05-15T19:46:15.540Z,5.95
2018-05-15T19:48:44.737Z,5.55
2018-05-15T19:51:13.536Z,6.53
2018-05-15T19:53:42.649Z,5.82
2018-05-15T19:56:11.454Z,5.75
2018-05-15T19:58:40.285Z,6.10
2018-05-15T20:01:08.356Z,5.70
2018-05-15T20:03:36.427Z,5.70
2018-05-15T20:06:04.464Z,5.80
2018-05-15T20:08:32.512Z,5.80
2018-05-15T20:11:00.588Z,6.80
2018-05-15T20:13:28.639Z,5.65
2018-05-15T20:15:56.688Z,6.00
2018-05-15T20:18:24.725Z,5.30
2018-05-15T20:20:52.809Z,6.18
2018-05-15T20:23:22.921Z,5.43
2018-05-15T20:25:50.988Z,5.72
2018-05-15T20:28:19.060Z,5.12
2018-05-15T20:30:47.113Z,5.00
2018-05-15T20:33:15.161Z,5.65
2018-05-15T20:35:43.978Z,5.37
2018-05-15T20:38:12.781Z,5.53
2018-05-15T20:40:41.621Z,5.00
2018-05-15T20:43:09.651Z,5.15
2018-05-15T20:45:38.500Z,5.35
2018-05-15T20:48:06.568Z,5.90
2018-05-15T20:50:34.621Z,5.90
2018-05-15T20:53:02.688Z,5.15
2018-05-15T20:55:30.724Z,4.60
2018-05-15T20:57:58.779Z,4.87
2018-05-15T21:00:27.586Z,5.53
2018-05-15T21:02:56.408Z,4.70
2018-05-15T21:05:24.443Z,5.20
2018-05-15T21:07:52.499Z,6.18
2018-05-15T21:10:20.564Z,5.03
2018-05-15T21:12:48.699Z,5.65
2018-05-15T21:15:16.944Z,8.05
2018-05-15T21:17:44.998Z,5.10
2018-05-15T21:20:13.834Z,5.70
2018-05-15T21:22:41.867Z,5.28
2018-05-15T21:25:09.924Z,5.60
2018-05-15T21:27:37.982Z,5.72
2018-05-15T21:30:06.069Z,5.22
2018-05-15T21:32:34.136Z,5.95
2018-05-15T21:35:02.175Z,4.80
2018-05-15T21:37:30.291Z,4.93
2018-05-15T21:39:59.087Z,5.20
2018-05-15T21:42:27.911Z,5.28
2018-05-15T21:44:55.959Z,5.22
2018-05-15T21:47:24.063Z,6.43
2018-05-15T21:49:52.983Z,5.50
2018-05-15T21:52:21.048Z,5.30
2018-05-15T21:54:49.847Z,4.93
2018-05-15T21:57:18.675Z,6.97
2018-05-15T21:59:46.784Z,5.62
2018-05-15T22:02:15.229Z,4.85
2018-05-15T22:04:44.069Z,4.93
2018-05-15T22:07:12.106Z,5.70
2018-05-15T22:09:40.950Z,5.50
2018-05-15T22:12:20.795Z,5.37
2018-05-15T22:15:00.684Z,5.75
2018-05-15T22:17:40.648Z,5.60
2018-05-15T22:20:20.695Z,6.10
2018-05-15T22:22:48.256Z,5.35
2018-05-15T22:25:16.315Z,5.10
2018-05-15T22:27:45.124Z,6.20
2018-05-15T22:30:13.948Z,6.10
2018-05-15T22:32:42.004Z,6.22
2018-05-15T22:35:10.842Z,5.70
2018-05-15T22:37:38.884Z,5.35
2018-05-15T22:40:07.716Z,5.82
2018-05-15T22:42:35.779Z,5.62
2018-05-15T22:45:04.584Z,5.32
2018-05-15T22:47:33.415Z,5.55
2018-05-15T22:50:01.444Z,5.62
2018-05-15T22:52:31.941Z,5.75
2018-05-15T22:54:59.981Z,5.82
2018-05-15T22:57:28.798Z,5.90
2018-05-15T22:59:57.952Z,5.72
2018-05-15T23:02:25.999Z,5.85
2018-05-15T23:04:54.826Z,6.35
2018-05-15T23:07:22.860Z,6.32
2018-05-15T23:09:50.932Z,6.15
2018-05-15T23:12:18.974Z,6.37
2018-05-15T23:14:47.035Z,6.35
2018-05-15T23:17:15.973Z,5.70
2018-05-15T23:19:44.039Z,6.50
2018-05-15T23:25:02.859Z,6.65
2018-05-15T23:27:30.911Z,6.43
2018-05-15T23:29:59.703Z,6.28
2018-05-15T23:32:28.583Z,5.70
2018-05-15T23:34:57.419Z,6.00
2018-05-15T23:37:26.232Z,6.22
2018-05-15T23:39:54.275Z,5.85
2018-05-15T23:42:22.335Z,6.68
2018-05-15T23:44:50.487Z,7.15
2018-05-15T23:47:18.556Z,6.90
2018-05-15T23:49:47.837Z,7.18
2018-05-15T23:52:15.880Z,6.37
2018-05-15T23:54:43.930Z,6.25
2018-05-15T23:57:12.751Z,5.43
2018-05-15T23:59:40.819Z,6.43
